Time;durP1;ratioP1;P1;durP2;ratioP2;P2;SDS_P1;SDS_P2;PMS_P1;PMS_P2;Temp;Humidity;BMP_temperature;BMP_pressure;BME280_temperature;BME280_humidity;BME280_pressure;Samples;Min_cycle;Max_cycle;Signal;HPM_P1;HPM_P2
2022/12/09 00:02:00;;;;;;;18.53;11.80;;;;;;;;;;5031546;28;20602;-87
2022/12/09 00:04:29;;;;;;;15.70;10.07;;;;;;;;;;5031401;28;20210;-88
2022/12/09 00:06:57;;;;;;;12.80;9.17;;;;;;;;;;5008641;28;20219;-88
2022/12/09 00:09:25;;;;;;;13.37;10.23;;;;;;;;;;5005930;28;20277;-87
2022/12/09 00:11:53;;;;;;;14.83;9.50;;;;;;;;;;5031531;28;20281;-88
2022/12/09 00:14:21;;;;;;;16.23;8.63;;;;;;;;;;5032145;28;20253;-88
2022/12/09 00:16:49;;;;;;;15.20;9.93;;;;;;;;;;5031666;28;20206;-88
2022/12/09 00:19:17;;;;;;;12.93;9.10;;;;;;;;;;5014168;28;20257;-88
2022/12/09 00:21:46;;;;;;;12.10;10.10;;;;;;;;;;5031903;28;20223;-92
2022/12/09 00:24:16;;;;;;;15.00;9.17;;;;;;;;;;5031673;28;20211;-88
2022/12/09 00:26:43;;;;;;;12.30;9.57;;;;;;;;;;5031458;28;20211;-89
2022/12/09 00:29:12;;;;;;;17.33;9.00;;;;;;;;;;5031776;28;20655;-88
2022/12/09 00:31:40;;;;;;;13.70;9.60;;;;;;;;;;5031518;28;20701;-88
2022/12/09 00:34:08;;;;;;;12.07;8.70;;;;;;;;;;5013664;28;20210;-90
2022/12/09 00:36:36;;;;;;;14.90;9.17;;;;;;;;;;5026431;28;20225;-87
2022/12/09 00:39:06;;;;;;;17.40;10.50;;;;;;;;;;5017984;28;20202;-88
2022/12/09 00:41:33;;;;;;;12.20;8.33;;;;;;;;;;5025629;28;20207;-87
2022/12/09 00:44:03;;;;;;;13.00;8.73;;;;;;;;;;5010320;28;20210;-88
2022/12/09 00:46:30;;;;;;;14.17;8.63;;;;;;;;;;5035507;28;20210;-88
2022/12/09 00:49:00;;;;;;;13.47;7.77;;;;;;;;;;5035006;28;20230;-88
2022/12/09 00:51:29;;;;;;;13.67;8.60;;;;;;;;;;5046256;28;20222;-88
2022/12/09 00:53:56;;;;;;;17.87;8.87;;;;;;;;;;5055384;28;20209;-88
2022/12/09 00:56:27;;;;;;;15.27;8.47;;;;;;;;;;5037227;28;20263;-89
2022/12/09 00:58:55;;;;;;;14.40;8.27;;;;;;;;;;5055389;28;20680;-88
2022/12/09 01:01:22;;;;;;;16.63;9.33;;;;;;;;;;5053242;28;20205;-88
2022/12/09 01:03:49;;;;;;;19.60;9.00;;;;;;;;;;5017544;28;20234;-88
2022/12/09 01:06:19;;;;;;;17.03;10.33;;;;;;;;;;5041395;28;20210;-90
2022/12/09 01:08:47;;;;;;;20.53;9.43;;;;;;;;;;5054975;28;20590;-92
2022/12/09 01:11:18;;;;;;;15.77;9.53;;;;;;;;;;5042158;28;20202;-88
2022/12/09 01:13:49;;;;;;;13.40;8.27;;;;;;;;;;5017485;28;20215;-89
2022/12/09 01:16:18;;;;;;;15.13;8.10;;;;;;;;;;5035732;28;20278;-88
2022/12/09 01:18:47;;;;;;;17.00;9.37;;;;;;;;;;5052847;28;20638;-87
2022/12/09 01:21:15;;;;;;;15.23;9.60;;;;;;;;;;5054878;28;20206;-88
2022/12/09 01:23:42;;;;;;;13.73;9.27;;;;;;;;;;5055190;28;20257;-88
2022/12/09 01:26:10;;;;;;;15.00;9.03;;;;;;;;;;5034443;28;20260;-89
2022/12/09 01:28:40;;;;;;;13.97;9.13;;;;;;;;;;5043678;28;20221;-88
2022/12/09 01:31:12;;;;;;;17.17;9.07;;;;;;;;;;5045687;28;20210;-88
2022/12/09 01:33:40;;;;;;;17.10;9.07;;;;;;;;;;5036439;28;20206;-87
2022/12/09 01:36:10;;;;;;;17.50;10.50;;;;;;;;;;5051199;28;20275;-88
2022/12/09 01:38:39;;;;;;;21.57;10.37;;;;;;;;;;5053941;28;20202;-93
2022/12/09 01:41:07;;;;;;;22.90;10.93;;;;;;;;;;5054874;28;20272;-92
2022/12/09 01:43:42;;;;;;;22.67;10.43;;;;;;;;;;5054677;28;20233;-93
2022/12/09 01:46:11;;;;;;;24.27;10.77;;;;;;;;;;5042947;28;20263;-87
2022/12/09 01:48:40;;;;;;;18.53;9.90;;;;;;;;;;5048104;28;20256;-87
2022/12/09 01:51:11;;;;;;;21.03;10.03;;;;;;;;;;5030465;28;20317;-87
2022/12/09 01:53:40;;;;;;;14.70;8.87;;;;;;;;;;5034043;28;20206;-87
2022/12/09 01:56:11;;;;;;;15.93;8.87;;;;;;;;;;5047620;28;20217;-88
2022/12/09 01:58:39;;;;;;;19.87;9.33;;;;;;;;;;5048878;28;20240;-87
2022/12/09 02:01:07;;;;;;;13.73;8.47;;;;;;;;;;5053504;28;20581;-87
2022/12/09 02:03:36;;;;;;;19.20;9.10;;;;;;;;;;5049983;28;20230;-88
2022/12/09 02:06:04;;;;;;;14.80;9.23;;;;;;;;;;5034111;28;20603;-87
2022/12/09 02:08:32;;;;;;;16.03;8.37;;;;;;;;;;5053151;28;20198;-88
2022/12/09 02:11:07;;;;;;;14.07;8.13;;;;;;;;;;5053634;28;20209;-88
2022/12/09 02:13:42;;;;;;;18.73;9.90;;;;;;;;;;5033604;28;20209;-88
2022/12/09 02:16:10;;;;;;;14.07;8.37;;;;;;;;;;5053084;28;20620;-88
2022/12/09 02:18:42;;;;;;;19.07;8.57;;;;;;;;;;5050481;28;20336;-89
2022/12/09 02:21:12;;;;;;;14.73;8.60;;;;;;;;;;5053244;28;20213;-89
2022/12/09 02:23:41;;;;;;;19.47;9.00;;;;;;;;;;5053869;28;20316;-88
2022/12/09 02:26:17;;;;;;;17.93;9.90;;;;;;;;;;5035820;28;20213;-88
2022/12/09 02:28:59;;;;;;;18.60;10.17;;;;;;;;;;5053306;28;20209;-88
2022/12/09 02:31:42;;;;;;;19.30;8.30;;;;;;;;;;5035099;28;20217;-87
2022/12/09 02:34:18;;;;;;;17.27;9.23;;;;;;;;;;5035203;28;20213;-87
2022/12/09 02:36:54;;;;;;;13.90;8.47;;;;;;;;;;5039141;28;20198;-87
2022/12/09 02:39:31;;;;;;;17.40;9.50;;;;;;;;;;5053353;28;20284;-87
2022/12/09 02:41:59;;;;;;;12.70;9.00;;;;;;;;;;5035778;28;20213;-87
2022/12/09 02:44:27;;;;;;;15.83;8.23;;;;;;;;;;5035922;28;20620;-88
2022/12/09 02:46:56;;;;;;;15.67;9.00;;;;;;;;;;5052779;28;20213;-88
2022/12/09 02:49:26;;;;;;;14.93;8.03;;;;;;;;;;5053000;28;20241;-87
2022/12/09 02:51:56;;;;;;;14.87;7.47;;;;;;;;;;5045721;28;20243;-89
2022/12/09 02:54:25;;;;;;;19.03;9.80;;;;;;;;;;5047199;28;20202;-91
2022/12/09 02:56:56;;;;;;;15.60;7.57;;;;;;;;;;5033082;28;20594;-89
2022/12/09 02:59:24;;;;;;;15.43;8.83;;;;;;;;;;5015178;28;20297;-89
2022/12/09 03:01:58;;;;;;;13.87;8.13;;;;;;;;;;5038041;28;20292;-88
2022/12/09 03:04:29;;;;;;;12.83;7.43;;;;;;;;;;5040880;28;20617;-88
2022/12/09 03:07:03;;;;;;;11.93;8.23;;;;;;;;;;5032973;28;20214;-88
2022/12/09 03:09:33;;;;;;;12.03;7.80;;;;;;;;;;5032651;28;20627;-87
2022/12/09 03:12:06;;;;;;;10.73;7.97;;;;;;;;;;5031958;28;20271;-89
2022/12/09 03:14:38;;;;;;;11.00;7.70;;;;;;;;;;5035104;28;20213;-89
2022/12/09 03:17:11;;;;;;;13.23;8.33;;;;;;;;;;5053091;28;20206;-89
2022/12/09 03:19:44;;;;;;;10.10;8.50;;;;;;;;;;5053055;28;20990;-88
2022/12/09 03:22:14;;;;;;;9.83;7.37;;;;;;;;;;5047199;28;20229;-89
2022/12/09 03:24:44;;;;;;;11.80;7.27;;;;;;;;;;5043756;28;20230;-89
2022/12/09 03:27:16;;;;;;;13.90;7.90;;;;;;;;;;5031141;28;20682;-89
2022/12/09 03:29:48;;;;;;;16.57;8.33;;;;;;;;;;5032487;28;20269;-88
2022/12/09 03:32:22;;;;;;;14.80;8.93;;;;;;;;;;5050603;28;20263;-90
2022/12/09 03:34:51;;;;;;;11.07;7.30;;;;;;;;;;5051913;28;20213;-91
2022/12/09 03:37:20;;;;;;;12.87;7.47;;;;;;;;;;5052797;28;20217;-91
2022/12/09 03:39:48;;;;;;;11.70;7.50;;;;;;;;;;5036706;28;20225;-90
2022/12/09 03:42:19;;;;;;;12.10;7.10;;;;;;;;;;5052823;28;20214;-91
2022/12/09 03:44:50;;;;;;;10.07;6.60;;;;;;;;;;5034635;28;20256;-89
2022/12/09 03:47:18;;;;;;;10.83;7.23;;;;;;;;;;5034268;28;20206;-88
2022/12/09 03:49:46;;;;;;;10.77;6.53;;;;;;;;;;5034193;28;20205;-89
2022/12/09 03:52:18;;;;;;;9.57;6.83;;;;;;;;;;5051606;28;20213;-89
2022/12/09 03:54:45;;;;;;;8.83;6.00;;;;;;;;;;5034387;28;20293;-88
2022/12/09 03:57:15;;;;;;;9.13;6.00;;;;;;;;;;5052292;28;20210;-88
2022/12/09 03:59:44;;;;;;;11.87;6.00;;;;;;;;;;5051949;28;20205;-87
2022/12/09 04:02:12;;;;;;;8.20;5.90;;;;;;;;;;5046430;28;20635;-87
2022/12/09 04:04:52;;;;;;;10.90;6.47;;;;;;;;;;5051760;28;20649;-94
2022/12/09 04:07:22;;;;;;;8.37;5.73;;;;;;;;;;5041488;28;20201;-94
2022/12/09 04:12:46;;;;;;;8.27;5.67;;;;;;;;;;5049987;28;20676;-94
2022/12/09 04:15:15;;;;;;;22.23;6.90;;;;;;;;;;5035754;28;20700;-93
2022/12/09 04:17:43;;;;;;;13.30;6.70;;;;;;;;;;5041562;28;20214;-93
2022/12/09 04:20:14;;;;;;;12.33;6.43;;;;;;;;;;5036721;28;20718;-93
2022/12/09 04:22:43;;;;;;;14.13;6.10;;;;;;;;;;5040497;28;20271;-93
2022/12/09 04:25:15;;;;;;;11.57;6.10;;;;;;;;;;5051430;28;20209;-94
2022/12/09 04:27:43;;;;;;;11.90;7.00;;;;;;;;;;5039446;28;20208;-93
2022/12/09 04:30:13;;;;;;;9.10;6.60;;;;;;;;;;5021342;28;20207;-93
2022/12/09 04:32:41;;;;;;;12.03;6.00;;;;;;;;;;5037826;28;20210;-93
2022/12/09 04:35:09;;;;;;;15.57;6.30;;;;;;;;;;5061786;28;20212;-94
2022/12/09 04:37:38;;;;;;;12.90;6.13;;;;;;;;;;5053080;28;20205;-93
2022/12/09 04:40:14;;;;;;;12.40;5.67;;;;;;;;;;5050834;28;20209;-94
2022/12/09 04:42:43;;;;;;;9.87;6.23;;;;;;;;;;5034139;28;20216;-92
2022/12/09 04:45:15;;;;;;;9.27;6.10;;;;;;;;;;5051792;28;20205;-94
2022/12/09 04:47:42;;;;;;;10.50;6.40;;;;;;;;;;5036823;28;20202;-93
2022/12/09 04:50:12;;;;;;;8.50;6.10;;;;;;;;;;5031578;28;20238;-93
2022/12/09 04:52:40;;;;;;;12.70;6.80;;;;;;;;;;5053393;28;20202;-94
2022/12/09 04:55:13;;;;;;;16.53;7.07;;;;;;;;;;5052053;28;20206;-92
2022/12/09 04:57:40;;;;;;;11.90;6.60;;;;;;;;;;5038569;28;20213;-92
2022/12/09 05:00:09;;;;;;;11.03;7.60;;;;;;;;;;5034301;28;20669;-92
2022/12/09 05:02:36;;;;;;;16.77;7.23;;;;;;;;;;5025798;28;20232;-92
2022/12/09 05:05:03;;;;;;;16.53;7.27;;;;;;;;;;5033711;28;20237;-92
2022/12/09 05:07:33;;;;;;;11.37;6.80;;;;;;;;;;5030840;28;20211;-92
2022/12/09 05:10:00;;;;;;;8.47;6.50;;;;;;;;;;5046256;28;20211;-88
2022/12/09 05:12:28;;;;;;;20.43;7.77;;;;;;;;;;5033063;28;20206;-89
2022/12/09 05:14:55;;;;;;;10.23;5.87;;;;;;;;;;5050911;28;20206;-89
2022/12/09 05:17:22;;;;;;;13.00;6.00;;;;;;;;;;5050955;28;20213;-88
2022/12/09 05:19:49;;;;;;;21.73;6.80;;;;;;;;;;5033846;28;20212;-91
2022/12/09 05:22:17;;;;;;;9.40;6.37;;;;;;;;;;5037774;28;20206;-90
2022/12/09 05:24:45;;;;;;;17.17;6.60;;;;;;;;;;5046962;28;20230;-91
2022/12/09 05:27:14;;;;;;;12.17;5.83;;;;;;;;;;5034754;28;20679;-91
2022/12/09 05:29:44;;;;;;;13.07;5.47;;;;;;;;;;5048391;28;20211;-89
2022/12/09 05:32:16;;;;;;;16.97;6.67;;;;;;;;;;5034722;28;20601;-91
2022/12/09 05:34:44;;;;;;;7.83;5.33;;;;;;;;;;5041564;28;20275;-91
2022/12/09 05:37:15;;;;;;;7.90;4.50;;;;;;;;;;5070586;28;20793;-91
2022/12/09 05:39:42;;;;;;;6.67;5.53;;;;;;;;;;5054534;28;20293;-91
2022/12/09 05:42:09;;;;;;;38.03;19.47;;;;;;;;;;5053733;28;20220;-92
2022/12/09 05:44:36;;;;;;;44.43;34.60;;;;;;;;;;5035896;28;20704;-89
2022/12/09 05:47:05;;;;;;;16.97;7.63;;;;;;;;;;5036094;28;20213;-92
2022/12/09 05:49:33;;;;;;;11.73;6.97;;;;;;;;;;5036319;28;20649;-92
2022/12/09 05:52:00;;;;;;;21.03;11.17;;;;;;;;;;5036784;28;20237;-92
2022/12/09 05:54:27;;;;;;;15.63;7.30;;;;;;;;;;5036748;28;20214;-89
2022/12/09 05:56:55;;;;;;;19.33;12.13;;;;;;;;;;5027206;28;20199;-91
2022/12/09 05:59:22;;;;;;;18.13;10.50;;;;;;;;;;5036904;28;20240;-90
2022/12/09 06:01:50;;;;;;;14.27;8.57;;;;;;;;;;5053838;28;20202;-90
2022/12/09 06:04:18;;;;;;;27.70;11.20;;;;;;;;;;5036997;28;20616;-91
2022/12/09 06:06:45;;;;;;;26.73;5.43;;;;;;;;;;5037010;28;20263;-90
2022/12/09 06:09:12;;;;;;;17.77;4.30;;;;;;;;;;5029158;28;20631;-90
2022/12/09 06:11:39;;;;;;;12.97;4.83;;;;;;;;;;5035317;28;20589;-90
2022/12/09 06:14:08;;;;;;;8.87;4.17;;;;;;;;;;5053858;28;20205;-90
2022/12/09 06:16:35;;;;;;;10.40;5.43;;;;;;;;;;5048428;28;20228;-90
2022/12/09 06:19:02;;;;;;;16.77;6.70;;;;;;;;;;5036423;28;20205;-88
2022/12/09 06:21:31;;;;;;;13.60;6.93;;;;;;;;;;5053997;28;20247;-89
2022/12/09 06:23:58;;;;;;;9.50;5.63;;;;;;;;;;5035930;28;20635;-90
2022/12/09 06:26:27;;;;;;;16.97;5.77;;;;;;;;;;5035480;28;20622;-89
2022/12/09 06:28:55;;;;;;;12.20;6.50;;;;;;;;;;5052981;28;20304;-89
2022/12/09 06:31:22;;;;;;;14.83;5.20;;;;;;;;;;5053417;28;20202;-90
2022/12/09 06:33:50;;;;;;;74.20;42.37;;;;;;;;;;5034647;28;20619;-90
2022/12/09 06:36:17;;;;;;;69.30;43.33;;;;;;;;;;5054710;28;20202;-92
2022/12/09 06:38:45;;;;;;;102.67;63.37;;;;;;;;;;5025575;28;20206;-87
2022/12/09 06:41:14;;;;;;;105.23;76.70;;;;;;;;;;5028483;28;20209;-88
2022/12/09 06:43:41;;;;;;;61.60;48.37;;;;;;;;;;5051652;28;20602;-87
2022/12/09 06:46:12;;;;;;;15.70;12.87;;;;;;;;;;5052492;28;20210;-87
2022/12/09 06:48:39;;;;;;;13.03;9.03;;;;;;;;;;5051938;28;20206;-86
2022/12/09 06:51:06;;;;;;;14.83;12.90;;;;;;;;;;5052086;28;20276;-88
2022/12/09 06:53:33;;;;;;;22.43;13.13;;;;;;;;;;5048188;28;20206;-88
2022/12/09 06:56:03;;;;;;;15.40;12.57;;;;;;;;;;5029292;28;20213;-88
2022/12/09 06:58:32;;;;;;;6.87;6.07;;;;;;;;;;5052841;28;20221;-95
2022/12/09 07:01:05;;;;;;;6.07;4.80;;;;;;;;;;5035680;28;20670;-92
2022/12/09 07:03:32;;;;;;;5.67;4.57;;;;;;;;;;5050813;28;20226;-94
2022/12/09 07:06:01;;;;;;;8.50;4.97;;;;;;;;;;5058699;28;20232;-91
2022/12/09 07:08:29;;;;;;;10.33;5.93;;;;;;;;;;5044143;28;20221;-92
2022/12/09 07:10:55;;;;;;;8.57;4.77;;;;;;;;;;5035077;28;20213;-92
2022/12/09 07:13:24;;;;;;;9.43;5.13;;;;;;;;;;5049823;28;20697;-91
2022/12/09 07:15:51;;;;;;;7.70;5.00;;;;;;;;;;5015653;28;20630;-92
2022/12/09 07:18:20;;;;;;;10.97;5.47;;;;;;;;;;5017693;28;20213;-94
2022/12/09 07:20:47;;;;;;;8.40;5.23;;;;;;;;;;5035370;28;20213;-91
2022/12/09 07:23:14;;;;;;;10.70;7.07;;;;;;;;;;5035535;28;20209;-95
2022/12/09 07:25:45;;;;;;;9.77;5.43;;;;;;;;;;5045740;28;20240;-94
2022/12/09 07:28:12;;;;;;;9.30;5.97;;;;;;;;;;5029599;28;20214;-90
2022/12/09 07:30:41;;;;;;;10.43;6.10;;;;;;;;;;5037987;28;20255;-93
2022/12/09 07:33:07;;;;;;;9.53;6.47;;;;;;;;;;5050813;28;20221;-92
2022/12/09 07:35:34;;;;;;;10.63;5.93;;;;;;;;;;5048566;28;20206;-93
2022/12/09 07:38:02;;;;;;;11.70;7.03;;;;;;;;;;5034396;28;20218;-94
2022/12/09 07:40:29;;;;;;;6.80;5.10;;;;;;;;;;5031838;28;20201;-90
2022/12/09 07:42:56;;;;;;;6.87;5.77;;;;;;;;;;5026630;28;20209;-92
2022/12/09 07:45:23;;;;;;;12.47;10.07;;;;;;;;;;5034145;28;20233;-95
2022/12/09 07:47:52;;;;;;;8.57;7.63;;;;;;;;;;5021285;28;20210;-94
2022/12/09 07:50:19;;;;;;;7.60;6.47;;;;;;;;;;5021168;28;20236;-92
2022/12/09 07:52:46;;;;;;;9.03;5.40;;;;;;;;;;5034806;28;20206;-94
2022/12/09 07:55:13;;;;;;;7.90;4.00;;;;;;;;;;5034447;28;20217;-95
2022/12/09 07:57:40;;;;;;;8.80;5.20;;;;;;;;;;5035163;28;20205;-91
2022/12/09 08:00:08;;;;;;;6.70;5.43;;;;;;;;;;5035139;28;20210;-95
2022/12/09 08:02:35;;;;;;;19.30;16.53;;;;;;;;;;5031273;28;20732;-90
2022/12/09 08:05:05;;;;;;;27.63;19.90;;;;;;;;;;5031089;28;20226;-91
2022/12/09 08:07:33;;;;;;;20.93;12.63;;;;;;;;;;5048727;28;20675;-94
2022/12/09 08:10:01;;;;;;;17.50;13.23;;;;;;;;;;5045328;28;20205;-90
2022/12/09 08:12:28;;;;;;;93.13;49.17;;;;;;;;;;5014506;28;20209;-93
2022/12/09 08:14:55;;;;;;;31.60;24.27;;;;;;;;;;5047130;28;20237;-93
2022/12/09 08:17:23;;;;;;;48.33;34.77;;;;;;;;;;5029266;28;20621;-91
2022/12/09 08:19:50;;;;;;;20.57;15.60;;;;;;;;;;5026441;28;20301;-94
2022/12/09 08:22:19;;;;;;;12.00;10.10;;;;;;;;;;5034642;28;20220;-89
2022/12/09 08:24:46;;;;;;;15.97;14.10;;;;;;;;;;5033842;28;20266;-92
2022/12/09 08:27:13;;;;;;;12.10;9.83;;;;;;;;;;5034657;28;20205;-93
2022/12/09 08:29:40;;;;;;;9.57;8.37;;;;;;;;;;5034074;28;20205;-93
2022/12/09 08:32:07;;;;;;;6.60;5.00;;;;;;;;;;5033360;28;20600;-92
2022/12/09 08:34:34;;;;;;;8.10;6.20;;;;;;;;;;5019649;28;20209;-90
2022/12/09 08:37:02;;;;;;;8.57;5.63;;;;;;;;;;5030654;28;20214;-94
2022/12/09 08:39:31;;;;;;;6.43;5.83;;;;;;;;;;5030501;28;20207;-95
2022/12/09 08:41:58;;;;;;;19.57;14.43;;;;;;;;;;5044502;28;20205;-94
2022/12/09 08:44:25;;;;;;;23.83;15.20;;;;;;;;;;5031601;28;20228;-89
2022/12/09 08:46:52;;;;;;;38.00;22.00;;;;;;;;;;5028453;28;20275;-87
2022/12/09 08:49:21;;;;;;;43.47;24.40;;;;;;;;;;5061278;28;20216;-95
2022/12/09 08:51:50;;;;;;;14.93;11.03;;;;;;;;;;5052183;28;20334;-94
2022/12/09 08:54:17;;;;;;;19.60;13.53;;;;;;;;;;5051254;28;20276;-93
2022/12/09 08:56:47;;;;;;;11.57;10.17;;;;;;;;;;5035237;28;20221;-90
2022/12/09 08:59:14;;;;;;;13.50;12.03;;;;;;;;;;5053314;28;20214;-94
2022/12/09 09:01:41;;;;;;;11.70;9.87;;;;;;;;;;5055340;28;20206;-87
2022/12/09 09:04:09;;;;;;;8.30;6.17;;;;;;;;;;5037562;28;20198;-93
2022/12/09 09:06:37;;;;;;;9.57;7.43;;;;;;;;;;5055545;28;20695;-94
2022/12/09 09:09:06;;;;;;;7.60;6.77;;;;;;;;;;5048827;28;20214;-88
2022/12/09 09:11:33;;;;;;;6.77;5.93;;;;;;;;;;5055299;28;20769;-89
2022/12/09 09:14:03;;;;;;;9.80;6.80;;;;;;;;;;5037325;28;20210;-89
2022/12/09 09:16:29;;;;;;;9.50;8.53;;;;;;;;;;5054200;28;20210;-85
2022/12/09 09:18:57;;;;;;;17.47;14.47;;;;;;;;;;5055023;28;20194;-93
2022/12/09 09:21:25;;;;;;;16.30;14.53;;;;;;;;;;5038493;28;20212;-95
2022/12/09 09:23:52;;;;;;;19.20;16.50;;;;;;;;;;5056503;28;20217;-92
2022/12/09 09:26:21;;;;;;;15.30;13.67;;;;;;;;;;5051834;28;20217;-90
2022/12/09 09:28:48;;;;;;;8.43;7.03;;;;;;;;;;5053909;28;20677;-94
2022/12/09 09:31:22;;;;;;;6.70;6.10;;;;;;;;;;5054599;28;20220;-94
2022/12/09 09:33:49;;;;;;;7.40;5.63;;;;;;;;;;5054722;28;20209;-87
2022/12/09 09:36:19;;;;;;;8.57;7.67;;;;;;;;;;5066463;28;20652;-93
2022/12/09 09:38:46;;;;;;;11.47;8.30;;;;;;;;;;5037783;28;20202;-90
2022/12/09 09:41:20;;;;;;;8.33;6.57;;;;;;;;;;5054688;28;20714;-89
2022/12/09 09:43:47;;;;;;;6.57;5.93;;;;;;;;;;5054786;28;20684;-91
2022/12/09 09:46:20;;;;;;;6.63;5.90;;;;;;;;;;5036948;28;20296;-95
2022/12/09 09:48:49;;;;;;;9.87;7.27;;;;;;;;;;5041732;28;20203;-95
2022/12/09 09:51:18;;;;;;;15.47;12.17;;;;;;;;;;5042172;28;20308;-94
2022/12/09 09:53:51;;;;;;;12.03;8.13;;;;;;;;;;5068947;28;20708;-96
2022/12/09 09:56:29;;;;;;;11.57;7.60;;;;;;;;;;5070353;28;20198;-95
2022/12/09 09:59:16;;;;;;;9.60;7.27;;;;;;;;;;5057671;28;20208;-94
2022/12/09 10:01:51;;;;;;;10.67;7.60;;;;;;;;;;5039794;28;20704;-95
2022/12/09 10:04:25;;;;;;;11.77;7.57;;;;;;;;;;5052331;28;20212;-92
2022/12/09 10:06:57;;;;;;;13.43;7.60;;;;;;;;;;5035321;28;20222;-92
2022/12/09 10:09:31;;;;;;;9.33;7.77;;;;;;;;;;5033205;28;20206;-91
2022/12/09 10:12:01;;;;;;;16.53;10.00;;;;;;;;;;5054119;28;20209;-90
2022/12/09 10:14:36;;;;;;;10.47;8.50;;;;;;;;;;5053778;28;20206;-92
2022/12/09 10:17:14;;;;;;;10.57;7.07;;;;;;;;;;5055674;28;20209;-93
2022/12/09 10:19:43;;;;;;;9.63;7.20;;;;;;;;;;5033474;28;20202;-91
2022/12/09 10:22:13;;;;;;;9.27;6.83;;;;;;;;;;5053569;28;20210;-94
2022/12/09 10:24:46;;;;;;;8.83;6.37;;;;;;;;;;5053870;28;20213;-95
2022/12/09 10:27:19;;;;;;;10.40;8.17;;;;;;;;;;5037547;28;20209;-91
2022/12/09 10:29:54;;;;;;;13.43;10.10;;;;;;;;;;5055036;28;20688;-94
2022/12/09 10:32:25;;;;;;;11.83;9.57;;;;;;;;;;5032144;28;20714;-94
2022/12/09 10:34:52;;;;;;;30.23;19.60;;;;;;;;;;5024029;28;20210;-91
2022/12/09 10:37:25;;;;;;;34.00;20.80;;;;;;;;;;5035821;28;20213;-95
2022/12/09 10:39:55;;;;;;;24.10;16.07;;;;;;;;;;5054604;28;20209;-92
2022/12/09 10:45:10;;;;;;;26.50;17.67;;;;;;;;;;5028575;28;20256;-96
2022/12/09 10:47:39;;;;;;;85.17;61.67;;;;;;;;;;5044619;28;20209;-92
2022/12/09 10:50:08;;;;;;;33.07;23.47;;;;;;;;;;5052790;28;20241;-92
2022/12/09 10:52:42;;;;;;;27.03;16.47;;;;;;;;;;5036932;28;20332;-87
2022/12/09 10:55:22;;;;;;;30.43;18.63;;;;;;;;;;5035745;28;20205;-88
2022/12/09 10:57:49;;;;;;;21.90;13.60;;;;;;;;;;5057776;28;20204;-91
2022/12/09 11:00:21;;;;;;;23.77;16.37;;;;;;;;;;5034602;28;20233;-89
2022/12/09 11:02:53;;;;;;;19.10;14.70;;;;;;;;;;5052432;28;20232;-90
2022/12/09 11:05:26;;;;;;;18.87;14.43;;;;;;;;;;5056386;28;20224;-87
2022/12/09 11:07:53;;;;;;;14.00;10.77;;;;;;;;;;5053558;28;20214;-86
2022/12/09 11:10:22;;;;;;;15.00;11.50;;;;;;;;;;5053852;28;20280;-88
2022/12/09 11:12:51;;;;;;;21.80;15.50;;;;;;;;;;5053491;28;20201;-88
2022/12/09 11:15:27;;;;;;;18.23;12.93;;;;;;;;;;5055525;28;20205;-88
2022/12/09 11:17:58;;;;;;;17.37;12.67;;;;;;;;;;5039397;28;20235;-88
2022/12/09 11:20:28;;;;;;;19.97;15.43;;;;;;;;;;5051208;28;20210;-91
2022/12/09 11:23:06;;;;;;;20.80;13.50;;;;;;;;;;5034069;28;20212;-88
2022/12/09 11:25:36;;;;;;;16.10;12.80;;;;;;;;;;5047751;28;20221;-88
2022/12/09 11:28:05;;;;;;;15.50;12.43;;;;;;;;;;5053606;28;20221;-88
2022/12/09 11:30:34;;;;;;;16.83;10.67;;;;;;;;;;5048468;28;20216;-91
2022/12/09 11:33:22;;;;;;;18.70;13.50;;;;;;;;;;5034870;28;20308;-92
2022/12/09 11:35:56;;;;;;;24.47;16.10;;;;;;;;;;5038171;28;20201;-91
2022/12/09 11:38:30;;;;;;;26.30;14.93;;;;;;;;;;5031431;28;20584;-89
2022/12/09 11:41:04;;;;;;;21.37;14.33;;;;;;;;;;5051867;28;20209;-93
2022/12/09 11:43:47;;;;;;;30.50;21.10;;;;;;;;;;5051737;28;20622;-91
2022/12/09 11:46:21;;;;;;;60.03;43.40;;;;;;;;;;5051360;28;20229;-89
2022/12/09 11:48:55;;;;;;;113.20;74.07;;;;;;;;;;5051674;28;20197;-88
2022/12/09 11:51:23;;;;;;;54.43;34.97;;;;;;;;;;5051695;28;20724;-92
2022/12/09 11:53:52;;;;;;;29.83;21.43;;;;;;;;;;5031456;28;20210;-89
2022/12/09 11:56:24;;;;;;;23.50;15.00;;;;;;;;;;5048902;28;20198;-91
2022/12/09 11:58:54;;;;;;;24.83;15.23;;;;;;;;;;5034356;28;20205;-87
2022/12/09 12:01:27;;;;;;;20.60;12.13;;;;;;;;;;5051937;28;20213;-87
2022/12/09 12:03:59;;;;;;;32.60;19.93;;;;;;;;;;5051042;28;20205;-90
2022/12/09 12:06:40;;;;;;;23.63;14.47;;;;;;;;;;5036380;28;20225;-90
2022/12/09 12:09:15;;;;;;;45.93;28.60;;;;;;;;;;5052029;28;20259;-90
2022/12/09 12:11:46;;;;;;;70.97;41.70;;;;;;;;;;5052333;28;20217;-88
2022/12/09 12:14:16;;;;;;;28.00;17.43;;;;;;;;;;5048996;28;20210;-88
2022/12/09 12:16:49;;;;;;;18.87;13.20;;;;;;;;;;5014808;28;20656;-89
2022/12/09 12:19:22;;;;;;;25.13;17.90;;;;;;;;;;5021447;28;20218;-87
2022/12/09 12:22:18;;;;;;;32.83;18.57;;;;;;;;;;5032738;28;20194;-88
2022/12/09 12:25:01;;;;;;;24.53;15.10;;;;;;;;;;5033425;28;20225;-93
2022/12/09 12:27:38;;;;;;;27.03;16.60;;;;;;;;;;5033747;28;20213;-86
2022/12/09 12:30:09;;;;;;;17.90;10.73;;;;;;;;;;5042664;28;20210;-85
2022/12/09 12:32:58;;;;;;;21.07;11.20;;;;;;;;;;5035653;28;20261;-90
2022/12/09 12:35:37;;;;;;;24.30;12.60;;;;;;;;;;5038614;28;20205;-92
2022/12/09 12:38:14;;;;;;;19.67;14.20;;;;;;;;;;5038624;28;20210;-92
2022/12/09 12:40:49;;;;;;;41.63;26.97;;;;;;;;;;5056710;28;20580;-90
2022/12/09 12:46:28;;;;;;;32.03;18.37;;;;;;;;;;5040513;28;20247;-94
2022/12/09 12:49:17;;;;;;;45.53;24.13;;;;;;;;;;5027550;28;20202;-92
2022/12/09 12:51:57;;;;;;;28.17;18.50;;;;;;;;;;5036298;28;20743;-91
2022/12/09 12:54:32;;;;;;;52.40;30.93;;;;;;;;;;5041850;28;20217;-93
2022/12/09 12:57:03;;;;;;;30.90;17.97;;;;;;;;;;5042793;28;20213;-91
2022/12/09 12:59:36;;;;;;;24.20;15.50;;;;;;;;;;5049795;28;20203;-92
2022/12/09 13:02:14;;;;;;;35.77;18.20;;;;;;;;;;5025454;28;20217;-91
2022/12/09 13:04:46;;;;;;;51.03;29.57;;;;;;;;;;5054633;28;20657;-90
2022/12/09 13:07:20;;;;;;;33.83;25.27;;;;;;;;;;5037727;28;20291;-90
2022/12/09 13:09:52;;;;;;;52.13;34.77;;;;;;;;;;5054883;28;20215;-91
2022/12/09 13:12:52;;;;;;;39.43;27.33;;;;;;;;;;5046550;28;20194;-89
2022/12/09 13:15:13;;;;;;;52.37;34.03;;;;;;;;;;5038233;28;20214;-92
2022/12/09 13:17:40;;;;;;;65.80;42.63;;;;;;;;;;5055234;28;20205;-93
2022/12/09 13:20:13;;;;;;;61.27;38.27;;;;;;;;;;5052190;28;20688;-92
2022/12/09 13:22:46;;;;;;;33.17;21.07;;;;;;;;;;5027779;28;20634;-91
2022/12/09 13:25:18;;;;;;;26.77;16.73;;;;;;;;;;5055034;28;20222;-90
2022/12/09 13:27:50;;;;;;;22.07;14.13;;;;;;;;;;5037823;28;20263;-94
2022/12/09 13:30:19;;;;;;;23.30;13.07;;;;;;;;;;5037512;28;20202;-93
2022/12/09 13:32:58;;;;;;;25.93;14.70;;;;;;;;;;5054967;28;20205;-92
2022/12/09 13:35:32;;;;;;;26.47;14.70;;;;;;;;;;5040473;28;20222;-93
2022/12/09 13:38:01;;;;;;;27.33;13.73;;;;;;;;;;5037764;28;20719;-93
2022/12/09 13:40:35;;;;;;;24.43;13.47;;;;;;;;;;5054590;28;20214;-91
2022/12/09 13:43:14;;;;;;;29.50;14.00;;;;;;;;;;5030706;28;20209;-93
2022/12/09 13:45:53;;;;;;;21.00;12.57;;;;;;;;;;5033662;28;20230;-92
2022/12/09 13:48:53;;;;;;;22.27;13.57;;;;;;;;;;5040744;28;20206;-91
2022/12/09 13:51:21;;;;;;;21.17;12.80;;;;;;;;;;4990206;28;20303;-89
2022/12/09 13:53:53;;;;;;;21.00;12.63;;;;;;;;;;4982602;28;20247;-92
2022/12/09 13:56:25;;;;;;;20.23;12.80;;;;;;;;;;5010669;28;20211;-92
2022/12/09 13:59:19;;;;;;;21.77;13.77;;;;;;;;;;5034165;28;20226;-91
2022/12/09 14:01:50;;;;;;;17.43;12.83;;;;;;;;;;5051759;28;20205;-93
2022/12/09 14:04:21;;;;;;;21.23;13.97;;;;;;;;;;5053724;28;20202;-90
2022/12/09 14:06:54;;;;;;;20.30;14.70;;;;;;;;;;5053689;28;20225;-90
2022/12/09 14:09:38;;;;;;;32.93;24.30;;;;;;;;;;5053851;28;20198;-90
2022/12/09 14:12:06;;;;;;;26.13;17.23;;;;;;;;;;5054363;28;20217;-95
2022/12/09 14:14:53;;;;;;;41.73;22.70;;;;;;;;;;5053280;28;20234;-86
2022/12/09 14:17:59;;;;;;;40.00;27.50;;;;;;;;;;5043740;28;20599;-87
2022/12/09 14:20:32;;;;;;;41.37;25.73;;;;;;;;;;5052828;28;20198;-89
2022/12/09 14:23:11;;;;;;;30.07;19.57;;;;;;;;;;5048208;28;20589;-88
2022/12/09 14:25:55;;;;;;;98.77;67.00;;;;;;;;;;5053301;28;20280;-87
2022/12/09 14:28:59;;;;;;;56.93;41.23;;;;;;;;;;5052863;28;20198;-86
2022/12/09 14:31:49;;;;;;;75.40;44.37;;;;;;;;;;5053938;28;20292;-87
2022/12/09 14:34:26;;;;;;;89.70;58.07;;;;;;;;;;5053070;28;20213;-86
2022/12/09 14:36:58;;;;;;;89.63;60.00;;;;;;;;;;5037780;28;20206;-86
2022/12/09 14:39:29;;;;;;;64.60;48.53;;;;;;;;;;5045833;28;20221;-88
2022/12/09 14:42:02;;;;;;;76.73;57.43;;;;;;;;;;5052644;28;20206;-87
2022/12/09 14:44:34;;;;;;;77.50;59.03;;;;;;;;;;5046909;28;20635;-88
2022/12/09 14:47:14;;;;;;;76.57;53.73;;;;;;;;;;5018974;28;20720;-88
2022/12/09 14:49:42;;;;;;;59.33;40.83;;;;;;;;;;5052621;28;20760;-86
2022/12/09 14:52:14;;;;;;;41.80;29.00;;;;;;;;;;5053179;28;20213;-85
2022/12/09 14:54:45;;;;;;;71.13;48.47;;;;;;;;;;5052003;28;20249;-89
2022/12/09 14:57:22;;;;;;;79.07;51.17;;;;;;;;;;5052284;28;20224;-89